createdAt,value
2017-04-26T00:00:52.933Z,0
2017-04-26T00:02:02.870Z,0
2017-04-26T00:03:12.808Z,0
2017-04-26T00:04:23.075Z,0
2017-04-26T00:05:33.329Z,0
2017-04-26T00:06:43.585Z,0
2017-04-26T00:07:53.842Z,0
2017-04-26T00:09:04.100Z,0
2017-04-26T00:10:14.353Z,0
2017-04-26T00:11:24.293Z,0
2017-04-26T00:12:34.237Z,0
2017-04-26T00:13:44.190Z,0
2017-04-26T00:14:54.451Z,0
2017-04-26T00:16:04.734Z,0
2017-04-26T00:17:14.675Z,0
2017-04-26T00:18:24.936Z,0
2017-04-26T00:19:35.190Z,0
2017-04-26T00:20:45.462Z,0
2017-04-26T00:21:55.721Z,0
2017-04-26T00:23:05.977Z,0
2017-04-26T00:24:16.230Z,0
2017-04-26T00:25:26.477Z,0
2017-04-26T00:26:36.416Z,0
2017-04-26T00:27:46.667Z,0
2017-04-26T00:28:56.919Z,0
2017-04-26T00:30:06.871Z,0
2017-04-26T00:31:17.128Z,0
2017-04-26T00:32:27.379Z,0
2017-04-26T00:33:37.634Z,0
2017-04-26T00:34:47.898Z,0
2017-04-26T00:35:57.843Z,0
2017-04-26T00:37:08.094Z,0
2017-04-26T00:38:18.364Z,0
2017-04-26T00:39:28.628Z,0
2017-04-26T00:40:38.877Z,0
2017-04-26T00:41:49.129Z,0
2017-04-26T00:42:59.380Z,0
2017-04-26T00:44:09.642Z,0
2017-04-26T00:45:19.890Z,0
2017-04-26T00:46:30.141Z,0
2017-04-26T00:47:40.395Z,0
2017-04-26T00:48:50.655Z,0
2017-04-26T00:50:00.917Z,0
2017-04-26T00:51:11.172Z,0
2017-04-26T00:52:21.434Z,0
2017-04-26T00:53:31.378Z,0
2017-04-26T00:54:41.325Z,0
2017-04-26T00:55:51.586Z,0
2017-04-26T00:57:01.844Z,0
2017-04-26T00:58:12.103Z,0
2017-04-26T00:59:22.352Z,0
2017-04-26T01:00:32.612Z,0
2017-04-26T01:01:42.863Z,0
2017-04-26T01:02:52.800Z,0
2017-04-26T01:04:03.059Z,0
2017-04-26T01:05:13.314Z,0
2017-04-26T01:06:23.250Z,0
2017-04-26T01:07:33.190Z,0
2017-04-26T01:08:43.135Z,0
2017-04-26T01:09:53.388Z,0
2017-04-26T01:11:03.640Z,0
2017-04-26T01:12:13.580Z,0
2017-04-26T01:13:23.523Z,0
2017-04-26T01:14:33.775Z,0
2017-04-26T01:15:44.032Z,0
2017-04-26T01:16:53.969Z,0
2017-04-26T01:18:04.226Z,0
2017-04-26T01:19:14.478Z,0
2017-04-26T01:20:24.734Z,0
2017-04-26T01:21:35.002Z,0
2017-04-26T01:22:45.256Z,0
2017-04-26T01:23:55.204Z,0
2017-04-26T01:25:05.457Z,0
2017-04-26T01:26:15.710Z,0
2017-04-26T01:27:25.968Z,0
2017-04-26T01:28:36.230Z,0
2017-04-26T01:29:46.483Z,0
2017-04-26T01:30:56.744Z,0
2017-04-26T01:32:06.996Z,0
2017-04-26T01:33:16.617Z,0
2017-04-26T01:34:26.877Z,0
2017-04-26T01:35:37.143Z,0
2017-04-26T01:36:47.409Z,0
2017-04-26T01:37:57.665Z,0
2017-04-26T01:39:07.601Z,0
2017-04-26T01:40:17.857Z,0
2017-04-26T01:41:28.112Z,0
2017-04-26T01:42:38.366Z,0
2017-04-26T01:43:48.633Z,0
2017-04-26T01:44:58.898Z,0
2017-04-26T01:46:09.156Z,0
2017-04-26T01:47:19.097Z,0
2017-04-26T01:48:29.356Z,0
2017-04-26T01:49:39.304Z,0
2017-04-26T01:50:49.558Z,0
2017-04-26T01:51:59.807Z,0
2017-04-26T01:53:10.061Z,0
2017-04-26T01:54:20.315Z,0
2017-04-26T01:55:29.946Z,0
2017-04-26T01:56:40.201Z,0
2017-04-26T01:57:50.461Z,0
2017-04-26T01:59:00.399Z,0
2017-04-26T02:00:10.338Z,0
2017-04-26T02:01:20.598Z,0
2017-04-26T02:02:30.846Z,0
2017-04-26T02:03:41.101Z,0
2017-04-26T02:04:51.041Z,0
2017-04-26T02:06:01.299Z,0
2017-04-26T02:07:11.557Z,0
2017-04-26T02:08:21.511Z,0
2017-04-26T02:09:31.766Z,0
2017-04-26T02:10:41.738Z,0
2017-04-26T02:11:52.013Z,0
2017-04-26T02:13:02.314Z,0
2017-04-26T02:14:12.255Z,0
2017-04-26T02:15:22.198Z,0
2017-04-26T02:16:32.457Z,0
2017-04-26T02:17:42.719Z,0
2017-04-26T02:18:52.973Z,0
2017-04-26T02:20:03.237Z,0
2017-04-26T02:21:13.178Z,0
2017-04-26T02:22:23.121Z,0
2017-04-26T02:23:33.383Z,0
2017-04-26T02:24:43.637Z,0
2017-04-26T02:25:53.893Z,0
2017-04-26T02:27:03.831Z,0
2017-04-26T02:28:13.466Z,0
2017-04-26T02:29:23.722Z,0
2017-04-26T02:30:33.997Z,0
2017-04-26T02:31:44.254Z,0
2017-04-26T02:32:54.516Z,0
2017-04-26T02:34:04.764Z,0
2017-04-26T02:35:14.725Z,0
2017-04-26T02:36:24.662Z,0
2017-04-26T02:37:34.913Z,0
2017-04-26T02:38:45.169Z,0
2017-04-26T02:39:55.421Z,0
2017-04-26T02:41:05.679Z,0
2017-04-26T02:42:15.619Z,0
2017-04-26T02:43:25.876Z,0
2017-04-26T02:44:35.814Z,0
2017-04-26T02:45:46.065Z,0
2017-04-26T02:46:56.004Z,0
2017-04-26T02:48:06.260Z,0
2017-04-26T02:49:16.517Z,0
2017-04-26T02:50:26.768Z,0
2017-04-26T02:51:37.017Z,0
2017-04-26T02:52:46.957Z,0
2017-04-26T02:53:57.217Z,0
2017-04-26T02:55:07.471Z,0
2017-04-26T02:56:17.408Z,0
2017-04-26T02:57:27.655Z,0
2017-04-26T02:58:37.915Z,0
2017-04-26T02:59:48.172Z,0
2017-04-26T03:00:58.416Z,0
2017-04-26T03:02:08.665Z,0
2017-04-26T03:03:18.605Z,0
2017-04-26T03:04:28.859Z,0
2017-04-26T03:05:39.112Z,0
2017-04-26T03:06:49.056Z,0
2017-04-26T03:07:59.346Z,0
2017-04-26T03:09:09.599Z,0
2017-04-26T03:10:19.538Z,0
2017-04-26T03:11:29.792Z,5
2017-04-26T03:12:40.044Z,5
2017-04-26T03:13:49.991Z,5
2017-04-26T03:15:00.240Z,5
2017-04-26T03:16:10.520Z,5
2017-04-26T03:17:20.708Z,5
2017-04-26T03:18:30.962Z,5
2017-04-26T03:19:41.215Z,5
2017-04-26T03:20:51.159Z,10
2017-04-26T03:22:01.446Z,10
2017-04-26T03:23:11.697Z,10
2017-04-26T03:24:21.324Z,10
2017-04-26T03:25:31.580Z,10
2017-04-26T03:26:41.844Z,15
2017-04-26T03:27:52.104Z,15
2017-04-26T03:29:02.375Z,15
2017-04-26T03:30:12.633Z,15
2017-04-26T03:31:22.260Z,15
2017-04-26T03:32:32.509Z,20
2017-04-26T03:33:42.770Z,20
2017-04-26T03:34:53.021Z,20
2017-04-26T03:36:03.281Z,25
2017-04-26T03:37:13.228Z,25
2017-04-26T03:38:23.488Z,25
2017-04-26T03:39:33.738Z,30
2017-04-26T03:40:43.683Z,30
2017-04-26T03:41:53.940Z,35
2017-04-26T03:43:04.197Z,35
2017-04-26T03:44:14.480Z,35
2017-04-26T03:45:24.430Z,40
2017-04-26T03:46:34.677Z,40
2017-04-26T03:47:44.931Z,45
2017-04-26T03:48:55.182Z,45
2017-04-26T03:50:05.442Z,45
2017-04-26T03:51:15.379Z,50
2017-04-26T03:52:25.632Z,50
2017-04-26T03:53:35.581Z,50
2017-04-26T03:54:45.836Z,55
2017-04-26T03:55:56.086Z,55
2017-04-26T03:57:06.346Z,55
2017-04-26T03:58:16.285Z,55
2017-04-26T03:59:26.543Z,55
2017-04-26T04:00:36.486Z,60
2017-04-26T04:01:46.740Z,60
2017-04-26T04:02:56.989Z,65
2017-04-26T04:04:07.248Z,65
2017-04-26T04:05:17.187Z,65
2017-04-26T04:06:27.436Z,70
2017-04-26T04:07:37.683Z,70
2017-04-26T04:08:47.939Z,75
2017-04-26T04:09:58.218Z,75
2017-04-26T04:11:08.503Z,75
2017-04-26T04:12:18.758Z,80
2017-04-26T04:13:29.008Z,80
2017-04-26T04:14:39.262Z,85
2017-04-26T04:15:49.200Z,90
2017-04-26T04:16:59.458Z,85
2017-04-26T04:18:09.720Z,90
2017-04-26T04:19:19.990Z,90
2017-04-26T04:20:30.251Z,95
2017-04-26T04:21:40.505Z,95
2017-04-26T04:22:50.758Z,95
2017-04-26T04:24:01.008Z,100
2017-04-26T04:25:11.261Z,100
2017-04-26T04:26:21.207Z,105
2017-04-26T04:27:31.464Z,105
2017-04-26T04:28:41.403Z,105
2017-04-26T04:29:51.659Z,110
2017-04-26T04:31:01.609Z,110
2017-04-26T04:32:11.864Z,115
2017-04-26T04:33:21.486Z,115
2017-04-26T04:34:31.428Z,115
2017-04-26T04:35:41.689Z,120
2017-04-26T04:36:51.939Z,120
2017-04-26T04:38:02.198Z,125
2017-04-26T04:39:12.447Z,125
2017-04-26T04:40:22.078Z,125
2017-04-26T04:41:32.016Z,125
2017-04-26T04:42:42.273Z,125
2017-04-26T04:43:52.529Z,130
2017-04-26T04:45:02.791Z,120
2017-04-26T04:46:12.740Z,120
2017-04-26T04:47:22.679Z,135
2017-04-26T04:48:32.937Z,135
2017-04-26T04:49:42.873Z,135
2017-04-26T04:50:53.127Z,140
2017-04-26T04:52:03.065Z,140
2017-04-26T04:53:13.346Z,140
2017-04-26T04:54:23.603Z,145
2017-04-26T04:55:33.855Z,145
2017-04-26T04:56:43.798Z,145
2017-04-26T04:57:54.049Z,150
2017-04-26T04:59:04.303Z,150
2017-04-26T05:00:14.555Z,150
2017-04-26T05:01:24.809Z,155
2017-04-26T05:02:35.071Z,155
2017-04-26T05:03:45.337Z,155
2017-04-26T05:04:55.593Z,155
2017-04-26T05:06:05.531Z,160
2017-04-26T05:07:15.796Z,155
2017-04-26T05:08:26.052Z,160
2017-04-26T05:09:36.311Z,160
2017-04-26T05:10:46.561Z,150
2017-04-26T05:11:56.816Z,150
2017-04-26T05:13:06.755Z,165
2017-04-26T05:14:17.005Z,165
2017-04-26T05:15:27.257Z,170
2017-04-26T05:16:37.521Z,170
2017-04-26T05:17:47.771Z,170
2017-04-26T05:18:58.033Z,170
2017-04-26T05:20:07.667Z,175
2017-04-26T05:21:17.615Z,175
2017-04-26T05:22:27.868Z,175
2017-04-26T05:23:38.120Z,175
2017-04-26T05:24:48.374Z,175
2017-04-26T05:25:58.318Z,180
2017-04-26T05:27:08.568Z,180
2017-04-26T05:28:18.826Z,180
2017-04-26T05:29:29.089Z,180
2017-04-26T05:30:39.345Z,185
2017-04-26T05:31:49.596Z,185
2017-04-26T05:32:59.852Z,185
2017-04-26T05:34:10.119Z,185
2017-04-26T05:35:20.383Z,185
2017-04-26T05:36:30.640Z,190
2017-04-26T05:37:40.893Z,190
2017-04-26T05:38:50.835Z,190
2017-04-26T05:40:01.102Z,190
2017-04-26T05:41:11.351Z,195
2017-04-26T05:42:21.296Z,195
2017-04-26T05:43:31.572Z,195
2017-04-26T05:44:41.825Z,195
2017-04-26T05:45:52.095Z,195
2017-04-26T05:47:02.358Z,200
2017-04-26T05:48:12.623Z,200
2017-04-26T05:49:22.561Z,200
2017-04-26T05:50:32.509Z,205
2017-04-26T05:51:42.766Z,200
2017-04-26T05:52:53.019Z,205
2017-04-26T05:54:02.965Z,205
2017-04-26T05:55:13.230Z,205
2017-04-26T05:56:23.488Z,205
2017-04-26T05:57:33.425Z,210
2017-04-26T05:58:43.682Z,210
2017-04-26T05:59:53.936Z,210
2017-04-26T06:01:03.883Z,210
2017-04-26T06:02:13.827Z,210
2017-04-26T06:03:24.093Z,215
2017-04-26T06:04:34.028Z,215
2017-04-26T06:05:44.281Z,215
2017-04-26T06:06:54.544Z,215
2017-04-26T06:08:04.797Z,220
2017-04-26T06:09:14.743Z,220
2017-04-26T06:10:25.007Z,220
2017-04-26T06:11:35.264Z,220
2017-04-26T06:12:45.526Z,225
2017-04-26T06:13:55.472Z,225
2017-04-26T06:15:05.729Z,225
2017-04-26T06:16:15.357Z,225
2017-04-26T06:17:25.618Z,225
2017-04-26T06:18:35.875Z,230
2017-04-26T06:19:46.125Z,230
2017-04-26T06:20:56.385Z,230
2017-04-26T06:22:06.652Z,230
2017-04-26T06:23:16.593Z,230
2017-04-26T06:24:26.845Z,230
2017-04-26T06:25:37.128Z,230
2017-04-26T06:26:47.390Z,230
2017-04-26T06:27:57.678Z,235
2017-04-26T06:29:07.939Z,235
2017-04-26T06:30:18.367Z,235
2017-04-26T06:31:28.617Z,235
2017-04-26T06:32:38.881Z,235
2017-04-26T06:33:49.145Z,240
2017-04-26T06:34:59.398Z,240
2017-04-26T06:36:09.659Z,235
2017-04-26T06:37:19.279Z,235
2017-04-26T06:38:29.543Z,245
2017-04-26T06:39:39.798Z,245
2017-04-26T06:40:50.054Z,245
2017-04-26T06:42:00.309Z,245
2017-04-26T06:43:10.565Z,250
2017-04-26T06:44:20.511Z,250
2017-04-26T06:45:30.770Z,250
2017-04-26T06:46:41.022Z,250
2017-04-26T06:47:50.965Z,255
2017-04-26T06:49:01.218Z,255
2017-04-26T06:50:11.159Z,255
2017-04-26T06:51:21.097Z,255
2017-04-26T06:52:31.349Z,260
2017-04-26T06:53:41.604Z,260
2017-04-26T06:54:51.854Z,260
2017-04-26T06:56:02.116Z,260
2017-04-26T06:57:12.370Z,265
2017-04-26T06:58:22.628Z,265
2017-04-26T06:59:32.568Z,265
2017-04-26T07:00:42.508Z,265
2017-04-26T07:01:52.767Z,270
2017-04-26T07:03:03.020Z,270
2017-04-26T07:04:12.969Z,270
2017-04-26T07:05:22.911Z,270
2017-04-26T07:06:33.162Z,275
2017-04-26T07:07:43.450Z,275
2017-04-26T07:08:53.723Z,275
2017-04-26T07:10:03.986Z,275
2017-04-26T07:11:14.239Z,280
2017-04-26T07:12:23.872Z,280
2017-04-26T07:13:34.134Z,280
2017-04-26T07:14:44.397Z,285
2017-04-26T07:15:54.660Z,285
2017-04-26T07:17:04.914Z,285
2017-04-26T07:18:14.855Z,285
2017-04-26T07:19:24.794Z,290
2017-04-26T07:20:35.051Z,290
2017-04-26T07:21:44.996Z,290
2017-04-26T07:22:55.254Z,295
2017-04-26T07:24:05.505Z,295
2017-04-26T07:25:15.763Z,295
2017-04-26T07:26:25.707Z,300
2017-04-26T07:27:35.987Z,300
2017-04-26T07:28:46.249Z,300
2017-04-26T07:29:56.505Z,305
2017-04-26T07:31:06.453Z,305
2017-04-26T07:32:16.764Z,310
2017-04-26T07:33:26.717Z,310
2017-04-26T07:34:36.981Z,310
2017-04-26T07:35:47.232Z,310
2017-04-26T07:36:57.494Z,315
2017-04-26T07:38:07.752Z,315
2017-04-26T07:39:17.077Z,315
2017-04-26T07:40:27.019Z,315
2017-04-26T07:41:37.270Z,325
2017-04-26T07:42:47.523Z,320
2017-04-26T07:43:57.468Z,325
2017-04-26T07:45:07.728Z,325
2017-04-26T07:46:17.670Z,325
2017-04-26T07:47:27.619Z,330
2017-04-26T07:48:37.876Z,330
2017-04-26T07:49:48.131Z,335
2017-04-26T07:50:58.074Z,330
2017-04-26T07:52:08.012Z,335
2017-04-26T07:53:18.269Z,335
2017-04-26T07:54:28.526Z,335
2017-04-26T07:55:38.776Z,335
2017-04-26T07:56:49.033Z,340
2017-04-26T07:57:59.285Z,340
2017-04-26T07:59:09.533Z,340
2017-04-26T08:00:19.478Z,345
2017-04-26T08:01:29.739Z,345
2017-04-26T08:02:40.106Z,350
2017-04-26T08:03:50.362Z,350
2017-04-26T08:05:00.626Z,350
2017-04-26T08:06:10.886Z,355
2017-04-26T08:07:20.824Z,355
2017-04-26T08:08:31.081Z,355
2017-04-26T08:09:41.332Z,360
2017-04-26T08:10:51.583Z,360
2017-04-26T08:12:01.843Z,365
2017-04-26T08:13:12.094Z,365
2017-04-26T08:14:22.037Z,365
2017-04-26T08:15:31.671Z,365
2017-04-26T08:16:41.923Z,365
2017-04-26T08:17:52.176Z,370
2017-04-26T08:19:02.434Z,370
2017-04-26T08:20:12.377Z,375
2017-04-26T08:21:22.642Z,375
2017-04-26T08:22:32.601Z,375
2017-04-26T08:23:42.562Z,375
2017-04-26T08:24:52.813Z,380
2017-04-26T08:26:03.068Z,380
2017-04-26T08:27:13.328Z,380
2017-04-26T08:28:22.670Z,385
2017-04-26T08:29:32.644Z,385
2017-04-26T08:30:42.899Z,385
2017-04-26T08:31:53.152Z,390
2017-04-26T08:33:03.410Z,390
2017-04-26T08:34:13.667Z,395
2017-04-26T08:35:23.925Z,395
2017-04-26T08:36:34.182Z,400
2017-04-26T08:37:44.461Z,400
2017-04-26T08:38:54.766Z,400
2017-04-26T08:40:05.020Z,400
2017-04-26T08:41:14.655Z,400
2017-04-26T08:42:24.598Z,400
2017-04-26T08:43:34.847Z,410
2017-04-26T08:44:45.109Z,405
2017-04-26T08:45:55.369Z,410
2017-04-26T08:47:05.623Z,415
2017-04-26T08:48:15.876Z,415
2017-04-26T08:49:26.129Z,415
2017-04-26T08:50:36.388Z,420
2017-04-26T08:51:46.644Z,420
2017-04-26T08:52:56.900Z,420
2017-04-26T08:54:07.155Z,420
2017-04-26T08:55:17.097Z,425
2017-04-26T08:56:27.354Z,430
2017-04-26T08:57:36.988Z,435
2017-04-26T08:58:47.244Z,435
2017-04-26T08:59:57.505Z,450
2017-04-26T09:01:07.763Z,455
2017-04-26T09:02:17.394Z,465
2017-04-26T09:03:27.340Z,470
2017-04-26T09:04:37.284Z,475
2017-04-26T09:05:47.536Z,475
2017-04-26T09:06:57.791Z,485
2017-04-26T09:08:07.740Z,485
2017-04-26T09:09:17.370Z,485
2017-04-26T09:10:27.623Z,480
2017-04-26T09:11:37.879Z,480
2017-04-26T09:12:48.164Z,490
2017-04-26T09:13:58.417Z,485
2017-04-26T09:15:08.677Z,490
2017-04-26T09:16:18.943Z,490
2017-04-26T09:17:29.196Z,495
2017-04-26T09:18:39.460Z,495
2017-04-26T09:19:51.717Z,480
2017-04-26T09:21:01.977Z,465
2017-04-26T09:22:12.241Z,460
2017-04-26T09:23:21.907Z,465
2017-04-26T09:24:32.164Z,475
2017-04-26T09:25:44.727Z,475
2017-04-26T09:26:54.670Z,480
2017-04-26T09:28:04.929Z,485
2017-04-26T09:29:15.192Z,495
2017-04-26T09:30:25.132Z,490
2017-04-26T09:31:35.391Z,480
2017-04-26T09:32:45.644Z,485
2017-04-26T09:33:55.900Z,485
2017-04-26T09:35:06.156Z,500
2017-04-26T09:36:16.413Z,510
2017-04-26T09:37:26.691Z,515
2017-04-26T09:38:36.949Z,515
2017-04-26T09:39:47.211Z,510
2017-04-26T09:40:57.477Z,505
2017-04-26T09:42:07.737Z,490
2017-04-26T09:43:17.692Z,495
2017-04-26T09:44:27.652Z,495
2017-04-26T09:45:37.594Z,490
2017-04-26T09:46:47.853Z,520
2017-04-26T09:47:58.106Z,530
2017-04-26T09:49:08.371Z,530
2017-04-26T09:50:18.635Z,530
2017-04-26T09:51:28.575Z,510
2017-04-26T09:52:38.833Z,475
2017-04-26T09:53:49.084Z,470
2017-04-26T09:54:59.333Z,465
2017-04-26T09:56:09.589Z,460
2017-04-26T09:57:19.219Z,460
2017-04-26T09:58:29.478Z,460
2017-04-26T09:59:39.735Z,465
2017-04-26T10:00:49.990Z,465
2017-04-26T10:02:00.248Z,470
2017-04-26T10:03:10.501Z,465
2017-04-26T10:04:20.444Z,465
2017-04-26T10:05:30.697Z,470
2017-04-26T10:06:40.638Z,475
2017-04-26T10:07:50.894Z,480
2017-04-26T10:09:01.145Z,475
2017-04-26T10:10:11.089Z,485
2017-04-26T10:11:20.717Z,490
2017-04-26T10:12:30.979Z,505
2017-04-26T10:13:41.233Z,530
2017-04-26T10:15:13.144Z,570
2017-04-26T10:16:23.404Z,590
2017-04-26T10:17:33.668Z,575
2017-04-26T10:18:43.618Z,560
2017-04-26T10:19:53.874Z,545
2017-04-26T10:21:04.140Z,515
2017-04-26T10:22:14.393Z,485
2017-04-26T10:23:24.338Z,490
2017-04-26T10:24:34.590Z,500
2017-04-26T10:25:44.531Z,480
2017-04-26T10:26:54.794Z,475
2017-04-26T10:29:03.400Z,475
2017-04-26T10:30:13.343Z,480
2017-04-26T10:31:23.300Z,490
2017-04-26T10:32:33.557Z,500
2017-04-26T10:33:43.815Z,400
2017-04-26T10:34:55.430Z,505
2017-04-26T10:36:06.044Z,505
2017-04-26T10:37:16.403Z,500
2017-04-26T10:38:26.348Z,500
2017-04-26T10:39:36.610Z,490
2017-04-26T10:40:46.867Z,490
2017-04-26T10:41:57.130Z,485
2017-04-26T10:43:07.388Z,495
2017-04-26T10:44:17.341Z,490
2017-04-26T10:45:27.603Z,510
2017-04-26T10:46:37.861Z,500
2017-04-26T10:47:48.117Z,490
2017-04-26T10:48:58.057Z,485
2017-04-26T10:50:08.316Z,490
2017-04-26T10:51:17.945Z,490
2017-04-26T10:52:28.205Z,485
2017-04-26T10:53:38.458Z,480
2017-04-26T10:54:48.713Z,480
2017-04-26T10:55:58.966Z,480
2017-04-26T10:57:09.230Z,480
2017-04-26T10:58:19.486Z,480
2017-04-26T10:59:29.767Z,480
2017-04-26T11:00:40.031Z,485
2017-04-26T11:01:50.295Z,485
2017-04-26T11:03:00.238Z,485
2017-04-26T11:04:10.493Z,490
2017-04-26T11:05:20.434Z,490
2017-04-26T11:06:30.690Z,495
2017-04-26T11:07:40.634Z,495
2017-04-26T11:08:50.893Z,500
2017-04-26T11:10:01.154Z,505
2017-04-26T11:11:11.408Z,510
2017-04-26T11:12:21.073Z,515
2017-04-26T11:13:31.334Z,520
2017-04-26T11:14:41.590Z,530
2017-04-26T11:15:51.850Z,545
2017-04-26T11:17:02.105Z,560
2017-04-26T11:18:12.363Z,585
2017-04-26T11:19:22.308Z,625
2017-04-26T11:20:32.566Z,985
2017-04-26T11:21:42.827Z,2305
2017-04-26T11:22:58.695Z,2750
2017-04-26T11:24:08.953Z,2750
2017-04-26T11:25:18.904Z,2595
2017-04-26T11:26:28.850Z,1820
2017-04-26T11:27:39.114Z,2370
2017-04-26T11:28:49.387Z,2330
2017-04-26T11:29:59.643Z,2735
2017-04-26T11:31:09.911Z,3070
2017-04-26T11:32:19.868Z,2995
2017-04-26T11:33:30.138Z,2840
2017-04-26T11:34:40.422Z,2945
2017-04-26T11:35:50.693Z,2940
2017-04-26T11:37:00.967Z,2985
2017-04-26T11:38:11.236Z,3010
2017-04-26T11:39:21.189Z,3140
2017-04-26T11:40:31.455Z,3070
2017-04-26T11:41:41.413Z,2975
2017-04-26T11:42:51.679Z,2845
2017-04-26T11:44:01.956Z,2730
2017-04-26T11:45:12.230Z,2835
2017-04-26T11:46:22.500Z,2985
2017-04-26T11:47:32.459Z,2900
2017-04-26T11:48:42.439Z,2815
2017-04-26T11:49:52.403Z,3030
2017-04-26T11:51:02.676Z,2595
2017-04-26T11:52:12.642Z,2620
2017-04-26T11:53:22.912Z,2600
2017-04-26T11:54:33.187Z,2690
2017-04-26T11:55:43.477Z,2650
2017-04-26T11:56:53.751Z,2730
2017-04-26T11:58:04.027Z,2750
2017-04-26T11:59:13.987Z,2790
2017-04-26T12:00:24.260Z,3040
2017-04-26T12:01:34.228Z,3010
2017-04-26T12:02:44.500Z,2425
2017-04-26T12:03:54.773Z,1965
2017-04-26T12:05:05.046Z,3110
2017-04-26T12:06:15.322Z,775
2017-04-26T12:07:25.598Z,3025
2017-04-26T12:08:35.869Z,3010
2017-04-26T12:09:46.145Z,3095
2017-04-26T12:10:55.796Z,3230
2017-04-26T12:12:06.065Z,3095
2017-04-26T12:13:15.712Z,2890
2017-04-26T12:14:25.689Z,2595
2017-04-26T12:15:35.960Z,3080
2017-04-26T12:16:46.243Z,3155
2017-04-26T12:17:56.520Z,3245
2017-04-26T12:19:06.800Z,1715
2017-04-26T12:20:16.762Z,3160
2017-04-26T12:21:27.038Z,3025
2017-04-26T12:22:37.322Z,2860
2017-04-26T12:23:47.285Z,2825
2017-04-26T12:24:57.560Z,2810
2017-04-26T12:26:07.556Z,2700
2017-04-26T12:27:17.212Z,2565
2017-04-26T12:28:27.489Z,2560
2017-04-26T12:29:37.766Z,2515
2017-04-26T12:30:48.041Z,2490
2017-04-26T12:31:58.321Z,2245
2017-04-26T12:33:08.602Z,2275
2017-04-26T12:34:17.947Z,1200
2017-04-26T12:35:27.909Z,2100
2017-04-26T12:36:37.872Z,1840
2017-04-26T12:37:48.154Z,1805
2017-04-26T12:38:58.117Z,2080
2017-04-26T12:40:08.402Z,2275
2017-04-26T12:41:18.681Z,2390
2017-04-26T12:42:28.953Z,3175
2017-04-26T12:43:39.228Z,3230
2017-04-26T12:44:49.506Z,2890
2017-04-26T12:45:59.778Z,2660
2017-04-26T12:47:09.739Z,2605
2017-04-26T12:48:19.704Z,2785
2017-04-26T12:49:30.015Z,3490
2017-04-26T12:50:40.303Z,3370
2017-04-26T12:51:50.585Z,3215
2017-04-26T12:53:00.867Z,3215
2017-04-26T12:54:11.155Z,3060
2017-04-26T12:55:20.811Z,3325
2017-04-26T12:56:31.097Z,3535
2017-04-26T12:57:41.388Z,3590
2017-04-26T12:58:51.351Z,3500
2017-04-26T13:00:01.630Z,3270
2017-04-26T13:01:11.908Z,3495
2017-04-26T13:02:21.562Z,3460
2017-04-26T13:03:31.844Z,3780
2017-04-26T13:04:42.125Z,3885
2017-04-26T13:05:52.407Z,3710
2017-04-26T13:07:02.689Z,3810
2017-04-26T13:08:12.977Z,3645
2017-04-26T13:09:23.259Z,3735
2017-04-26T13:10:33.541Z,3340
2017-04-26T13:11:43.830Z,2755
2017-04-26T13:12:54.114Z,3230
2017-04-26T13:14:04.400Z,2860
2017-04-26T13:15:14.690Z,2755
2017-04-26T13:16:24.973Z,2310
2017-04-26T13:17:35.266Z,2970
2017-04-26T13:18:45.546Z,2560
2017-04-26T13:19:55.832Z,2490
2017-04-26T13:21:06.119Z,1870
2017-04-26T13:22:16.400Z,2905
2017-04-26T13:23:26.682Z,3475
2017-04-26T13:24:36.963Z,3595
2017-04-26T13:25:47.237Z,3635
2017-04-26T13:26:57.521Z,4150
2017-04-26T13:28:07.834Z,4080
2017-04-26T13:29:17.793Z,1990
2017-04-26T13:30:27.759Z,2150
2017-04-26T13:31:38.079Z,3440
2017-04-26T13:32:48.355Z,3435
2017-04-26T13:33:58.641Z,3465
2017-04-26T13:35:08.925Z,1860
2017-04-26T13:36:19.199Z,3730
2017-04-26T13:37:29.167Z,3525
2017-04-26T13:38:39.135Z,3665
2017-04-26T13:39:49.412Z,3635
2017-04-26T13:40:59.696Z,3230
2017-04-26T13:42:09.665Z,2285
2017-04-26T13:43:19.944Z,3200
2017-04-26T13:44:30.226Z,3080
2017-04-26T13:45:40.528Z,2520
2017-04-26T13:46:50.809Z,2885
2017-04-26T13:48:01.092Z,1585
2017-04-26T13:49:11.373Z,895
2017-04-26T13:50:21.657Z,725
2017-04-26T13:51:31.943Z,605
2017-04-26T13:52:42.218Z,585
2017-04-26T13:53:52.497Z,720
2017-04-26T13:55:02.775Z,1340
2017-04-26T13:56:13.058Z,675
2017-04-26T13:57:23.335Z,465
2017-04-26T13:58:33.607Z,440
2017-04-26T13:59:43.880Z,415
2017-04-26T14:00:54.157Z,455
2017-04-26T14:02:04.428Z,430
2017-04-26T14:03:14.380Z,530
2017-04-26T14:04:24.024Z,435
2017-04-26T14:05:34.291Z,415
2017-04-26T14:06:44.561Z,410
2017-04-26T14:07:54.832Z,410
2017-04-26T14:09:05.095Z,415
2017-04-26T14:10:15.365Z,405
2017-04-26T14:11:25.632Z,395
2017-04-26T14:12:35.584Z,395
2017-04-26T14:13:45.842Z,395
2017-04-26T14:14:56.109Z,400
2017-04-26T14:16:06.368Z,395
2017-04-26T14:17:16.325Z,395
2017-04-26T14:18:26.275Z,405
2017-04-26T14:19:35.911Z,420
2017-04-26T14:20:46.181Z,425
2017-04-26T14:21:56.444Z,415
2017-04-26T14:23:06.713Z,395
2017-04-26T14:24:16.972Z,385
2017-04-26T14:25:26.915Z,380
2017-04-26T14:26:37.170Z,390
2017-04-26T14:27:47.428Z,400
2017-04-26T14:28:57.688Z,425
2017-04-26T14:30:07.319Z,455
2017-04-26T14:31:17.575Z,485
2017-04-26T14:32:27.837Z,495
2017-04-26T14:33:38.104Z,470
2017-04-26T14:34:48.364Z,430
2017-04-26T14:35:57.996Z,385
2017-04-26T14:37:08.256Z,355
2017-04-26T14:38:18.520Z,330
2017-04-26T14:39:28.783Z,310
2017-04-26T14:40:39.048Z,285
2017-04-26T14:41:49.308Z,260
2017-04-26T14:42:59.565Z,250
2017-04-26T14:44:09.512Z,245
2017-04-26T14:45:19.771Z,245
2017-04-26T14:46:30.032Z,250
2017-04-26T14:47:40.290Z,255
2017-04-26T14:48:50.553Z,265
2017-04-26T14:50:00.812Z,270
2017-04-26T14:51:11.069Z,290
2017-04-26T14:52:21.036Z,310
2017-04-26T14:53:31.294Z,330
2017-04-26T14:54:41.580Z,355
2017-04-26T14:55:51.839Z,410
2017-04-26T14:57:02.093Z,570
2017-04-26T14:58:12.348Z,990
2017-04-26T14:59:21.979Z,1420
2017-04-26T15:00:32.241Z,2640
2017-04-26T15:01:42.505Z,2745
2017-04-26T15:02:52.770Z,2740
2017-04-26T15:04:02.749Z,2670
2017-04-26T15:05:12.702Z,2575
2017-04-26T15:06:22.652Z,2470
2017-04-26T15:07:32.916Z,2175
2017-04-26T15:08:43.177Z,2080
2017-04-26T15:09:53.125Z,2070
2017-04-26T15:11:03.397Z,1900
2017-04-26T15:12:13.352Z,1960
2017-04-26T15:13:22.995Z,1560
2017-04-26T15:14:32.953Z,1640
2017-04-26T15:15:43.221Z,2220
2017-04-26T15:16:53.174Z,2050
2017-04-26T15:18:03.440Z,1970
2017-04-26T15:19:13.714Z,1610
2017-04-26T15:20:23.978Z,1280
2017-04-26T15:21:34.242Z,1220
2017-04-26T15:22:44.513Z,1375
2017-04-26T15:23:54.784Z,820
2017-04-26T15:25:05.055Z,865
2017-04-26T15:26:15.333Z,1525
2017-04-26T15:27:25.602Z,2040
2017-04-26T15:28:35.878Z,1780
2017-04-26T15:29:45.830Z,1630
2017-04-26T15:30:56.098Z,1845
2017-04-26T15:32:06.369Z,1925
2017-04-26T15:33:16.638Z,1670
2017-04-26T15:34:26.894Z,1460
2017-04-26T15:35:37.154Z,1745
2017-04-26T15:36:47.420Z,1565
2017-04-26T15:37:57.378Z,1400
2017-04-26T15:39:07.643Z,1330
2017-04-26T15:40:17.918Z,1530
2017-04-26T15:41:28.192Z,1115
2017-04-26T15:42:38.151Z,1165
2017-04-26T15:43:48.425Z,1020
2017-04-26T15:44:58.694Z,885
2017-04-26T15:46:08.956Z,850
2017-04-26T15:47:18.908Z,690
2017-04-26T15:48:29.172Z,600
2017-04-26T15:49:39.437Z,585
2017-04-26T15:50:49.703Z,565
2017-04-26T15:51:59.974Z,435
2017-04-26T15:53:10.240Z,395
2017-04-26T15:54:19.879Z,405
2017-04-26T15:55:30.158Z,435
2017-04-26T15:56:40.430Z,355
2017-04-26T15:57:50.397Z,345
2017-04-26T15:59:00.354Z,310
2017-04-26T16:00:10.319Z,310
2017-04-26T16:01:20.277Z,310
2017-04-26T16:02:30.548Z,350
2017-04-26T16:03:40.816Z,315
2017-04-26T16:04:51.077Z,325
2017-04-26T16:06:00.713Z,335
2017-04-26T16:07:10.982Z,345
2017-04-26T16:08:20.643Z,350
2017-04-26T16:09:30.587Z,345
2017-04-26T16:10:40.849Z,340
2017-04-26T16:11:51.114Z,345
2017-04-26T16:13:00.747Z,365
2017-04-26T16:14:11.011Z,400
2017-04-26T16:15:20.960Z,420
2017-04-26T16:16:30.912Z,435
2017-04-26T16:17:41.177Z,445